Terminal Aerodrome Forecast
Issued by NWS Jackson, MS

Home | Current Version | Previous Version | Text Only | Print | Product List | Glossary On
Versions: 1 2 3 4 5 6 7 8 9 10 11 12 13 14 15 16 17
000
FTUS44 KJAN 272320
TAFJAN
TAF
KJAN 272320Z 2800/2824 16004KT P6SM SKC
     FM280900 15010KT P6SM SCT008
     FM281200 15012G23KT P6SM BKN008
     FM281400 17015G29KT P6SM BKN015
     FM281700 17017G34KT P6SM BKN025
     FM282000 17018G37KT P6SM SCT035=

USA.gov is the U.S. government's official web portal to all federal, state and local government web resources and services.